createdAt,value
2018-06-23T00:00:10.841Z,9.07
2018-06-23T00:02:42.290Z,6.90
2018-06-23T00:05:14.872Z,8.67
2018-06-23T00:07:44.526Z,11.93
2018-06-23T00:10:13.279Z,8.63
2018-06-23T00:12:42.018Z,9.13
2018-06-23T00:15:11.341Z,6.53
2018-06-23T00:17:40.008Z,9.40
2018-06-23T00:20:09.928Z,4.40
2018-06-23T00:22:40.887Z,6.90
2018-06-23T00:39:18.836Z,10.20
2018-06-23T00:42:00.665Z,8.57
2018-06-23T00:47:11.940Z,6.20
2018-06-23T00:49:58.941Z,10.10
2018-06-23T00:52:32.859Z,8.63
2018-06-23T00:58:08.036Z,7.80
2018-06-23T01:06:53.918Z,8.27
2018-06-23T01:12:24.430Z,9.97
2018-06-23T01:15:05.230Z,9.00
2018-06-23T01:17:35.908Z,10.53
2018-06-23T01:20:39.309Z,12.63
2018-06-23T01:23:14.239Z,6.80
2018-06-23T01:25:47.764Z,12.57
2018-06-23T01:28:39.529Z,7.83
2018-06-23T01:31:26.273Z,7.37
2018-06-23T01:34:07.825Z,10.97
2018-06-23T01:39:35.972Z,9.40
2018-06-23T01:42:13.945Z,10.77
2018-06-23T01:44:51.465Z,8.50
2018-06-23T01:47:36.114Z,8.57
2018-06-23T01:50:14.863Z,11.27
2018-06-23T01:52:50.192Z,9.47
2018-06-23T01:55:24.621Z,11.23
2018-06-23T01:58:01.489Z,10.40
2018-06-23T02:00:31.974Z,6.50
2018-06-23T02:03:02.026Z,7.83
2018-06-23T02:05:31.713Z,9.60
2018-06-23T02:08:02.728Z,11.93
2018-06-23T02:10:33.853Z,7.77
2018-06-23T02:13:04.026Z,8.23
2018-06-23T02:15:38.845Z,8.97
2018-06-23T02:18:21.537Z,9.47
2018-06-23T02:21:02.936Z,9.53
2018-06-23T02:23:43.762Z,8.63
2018-06-23T02:26:20.242Z,8.90
2018-06-23T02:28:58.793Z,9.40
2018-06-23T02:31:38.140Z,9.23
2018-06-23T02:34:24.327Z,10.97
2018-06-23T02:37:03.981Z,7.27
2018-06-23T02:39:47.068Z,9.73
2018-06-23T02:42:55.280Z,9.30
2018-06-23T02:45:34.609Z,10.10
2018-06-23T02:48:18.103Z,11.57
2018-06-23T02:50:59.897Z,8.53
2018-06-23T02:53:37.943Z,9.33
2018-06-23T02:56:16.417Z,9.50
2018-06-23T02:58:52.925Z,9.37
2018-06-23T03:01:36.881Z,9.83
2018-06-23T03:06:58.486Z,10.73
2018-06-23T03:09:33.504Z,12.20
2018-06-23T03:12:22.175Z,10.97
2018-06-23T03:18:34.484Z,8.23
2018-06-23T03:21:31.177Z,9.40
2018-06-23T03:24:15.880Z,8.73
2018-06-23T03:32:14.305Z,10.57
2018-06-23T03:34:43.505Z,15.50
2018-06-23T03:37:21.792Z,9.63
2018-06-23T03:39:50.949Z,10.53
2018-06-23T03:42:22.533Z,12.83
2018-06-23T03:44:55.441Z,8.53
2018-06-23T03:47:37.540Z,13.33
2018-06-23T03:50:16.448Z,11.33
2018-06-23T03:52:55.549Z,12.87
2018-06-23T03:55:35.052Z,9.33
2018-06-23T04:00:57.756Z,10.63
2018-06-23T04:03:47.179Z,14.80
2018-06-23T04:09:41.302Z,13.57
2018-06-23T04:12:10.343Z,13.10
2018-06-23T04:14:39.361Z,13.30
2018-06-23T04:17:08.847Z,8.60
2018-06-23T04:19:45.771Z,13.77
2018-06-23T04:22:24.616Z,10.30
2018-06-23T04:25:03.579Z,12.03
2018-06-23T04:27:39.241Z,9.80
2018-06-23T04:30:09.070Z,14.33
2018-06-23T04:32:38.470Z,14.20
2018-06-23T04:35:10.316Z,11.50
2018-06-23T04:37:40.228Z,13.73
2018-06-23T04:40:13.889Z,15.23
2018-06-23T04:42:45.181Z,12.47
2018-06-23T04:45:14.872Z,12.17
2018-06-23T04:47:57.889Z,17.33
2018-06-23T04:50:32.132Z,13.93
2018-06-23T04:53:02.820Z,13.00
2018-06-23T04:55:33.100Z,9.63
2018-06-23T04:58:24.456Z,11.33
2018-06-23T05:00:53.913Z,14.27
2018-06-23T05:03:26.879Z,14.50
2018-06-23T05:06:23.680Z,14.20
2018-06-23T05:09:01.160Z,16.33
2018-06-23T05:11:35.710Z,15.07
2018-06-23T05:14:09.988Z,16.37
2018-06-23T05:16:41.865Z,12.40
2018-06-23T05:19:15.104Z,12.20
2018-06-23T05:21:49.611Z,14.63
2018-06-23T05:24:21.850Z,15.30
2018-06-23T05:26:54.906Z,11.97
2018-06-23T05:29:34.772Z,14.17
2018-06-23T05:32:06.400Z,13.10
2018-06-23T05:34:37.276Z,11.90
2018-06-23T05:37:12.378Z,14.93
2018-06-23T05:39:44.765Z,14.03
2018-06-23T05:42:20.489Z,16.67
2018-06-23T05:44:53.137Z,14.40
2018-06-23T05:50:07.692Z,11.93
2018-06-23T05:52:37.513Z,10.57
2018-06-23T05:55:07.083Z,12.63
2018-06-23T05:57:37.698Z,13.60
2018-06-23T06:00:06.397Z,11.77
2018-06-23T06:02:35.448Z,14.20
2018-06-23T06:05:05.281Z,13.90
2018-06-23T06:07:35.077Z,17.47
2018-06-23T06:10:11.121Z,11.80
2018-06-23T06:12:41.230Z,11.70
2018-06-23T06:15:12.785Z,10.20
2018-06-23T06:17:42.244Z,15.80
2018-06-23T06:20:13.797Z,13.03
2018-06-23T06:22:47.134Z,13.73
2018-06-23T06:25:20.041Z,8.70
2018-06-23T06:27:50.869Z,14.40
2018-06-23T06:30:19.913Z,12.33
2018-06-23T06:32:53.385Z,20.23
2018-06-23T06:35:23.390Z,13.73
2018-06-23T06:37:53.356Z,11.17
2018-06-23T06:40:26.151Z,11.43
2018-06-23T06:42:58.326Z,13.27
2018-06-23T06:48:07.891Z,15.07
2018-06-23T06:50:45.403Z,14.53
2018-06-23T06:53:47.404Z,14.13
2018-06-23T06:56:43.089Z,12.53
2018-06-23T06:59:17.794Z,12.00
2018-06-23T07:05:01.575Z,19.23
2018-06-23T07:07:30.377Z,12.13
2018-06-23T07:09:59.259Z,14.40
2018-06-23T07:12:29.380Z,13.27
2018-06-23T07:14:58.423Z,12.40
2018-06-23T07:17:27.606Z,10.83
2018-06-23T07:19:56.599Z,16.53
2018-06-23T07:22:25.809Z,11.50
2018-06-23T07:24:54.569Z,14.97
2018-06-23T07:27:23.798Z,17.00
2018-06-23T07:29:52.832Z,12.83
2018-06-23T07:32:21.825Z,11.80
2018-06-23T07:34:50.735Z,12.90
2018-06-23T07:37:19.737Z,12.90
2018-06-23T07:39:49.106Z,14.43
2018-06-23T07:42:18.077Z,13.27
2018-06-23T07:44:47.049Z,13.03
2018-06-23T07:47:16.863Z,12.07
2018-06-23T07:49:45.653Z,10.53
2018-06-23T07:52:14.475Z,14.50
2018-06-23T07:54:44.188Z,14.47
2018-06-23T07:57:12.919Z,11.13
2018-06-23T07:59:41.652Z,16.20
2018-06-23T08:02:10.423Z,11.43
2018-06-23T08:04:39.283Z,7.90
2018-06-23T08:07:08.683Z,11.37
2018-06-23T08:09:38.093Z,9.20
2018-06-23T08:12:07.197Z,11.80
2018-06-23T08:14:36.394Z,14.73
2018-06-23T08:17:07.612Z,15.00
2018-06-23T08:19:36.272Z,9.27
2018-06-23T08:22:05.725Z,12.60
2018-06-23T08:24:34.533Z,13.33
2018-06-23T08:27:05.661Z,10.03
2018-06-23T08:29:40.022Z,14.00
2018-06-23T08:32:09.292Z,12.73
2018-06-23T08:34:38.245Z,13.90
2018-06-23T08:37:14.748Z,14.57
2018-06-23T08:39:44.057Z,11.70
2018-06-23T08:42:12.789Z,13.20
2018-06-23T08:44:41.518Z,9.20
2018-06-23T08:47:10.327Z,12.13
2018-06-23T08:49:38.974Z,11.40
2018-06-23T08:52:09.083Z,16.63
2018-06-23T08:54:37.833Z,12.33
2018-06-23T08:57:06.687Z,10.67
2018-06-23T08:59:35.544Z,16.20
2018-06-23T09:02:04.177Z,12.03
2018-06-23T09:04:38.044Z,12.13
2018-06-23T09:07:06.772Z,10.77
2018-06-23T09:09:36.124Z,10.30
2018-06-23T09:12:04.762Z,10.17
2018-06-23T09:14:33.908Z,10.20
2018-06-23T09:17:02.759Z,13.33
2018-06-23T09:19:35.213Z,11.47
2018-06-23T09:22:04.490Z,12.87
2018-06-23T09:24:33.871Z,13.20
2018-06-23T09:27:07.055Z,10.57
2018-06-23T09:29:38.470Z,9.63
2018-06-23T09:34:46.326Z,10.70
2018-06-23T09:37:17.171Z,13.53
2018-06-23T09:39:47.268Z,13.80
2018-06-23T09:42:15.985Z,11.93
2018-06-23T09:44:48.485Z,9.03
2018-06-23T09:47:20.318Z,15.43
2018-06-23T09:49:49.113Z,8.10
2018-06-23T09:52:18.181Z,9.47
2018-06-23T09:54:46.916Z,9.87
2018-06-23T09:57:15.804Z,9.63
2018-06-23T09:59:44.620Z,9.60
2018-06-23T10:02:13.640Z,12.50
2018-06-23T10:04:42.224Z,9.70
2018-06-23T10:07:11.450Z,12.17
2018-06-23T10:09:40.795Z,8.63
2018-06-23T10:12:11.129Z,10.23
2018-06-23T10:14:39.810Z,13.53
2018-06-23T10:17:08.449Z,8.97
2018-06-23T10:19:38.475Z,10.40
2018-06-23T10:22:07.340Z,7.13
2018-06-23T10:24:36.450Z,8.13
2018-06-23T10:27:05.485Z,5.57
2018-06-23T10:29:34.422Z,5.43
2018-06-23T10:32:03.313Z,7.33
2018-06-23T10:34:34.247Z,8.43
2018-06-23T10:37:03.710Z,5.73
2018-06-23T10:39:32.912Z,4.80
2018-06-23T10:42:01.537Z,6.43
2018-06-23T10:44:30.178Z,6.50
2018-06-23T10:47:00.838Z,7.27
2018-06-23T10:49:29.460Z,9.40
2018-06-23T10:51:58.083Z,8.27
2018-06-23T10:54:27.102Z,10.50
2018-06-23T10:56:56.303Z,10.43
2018-06-23T10:59:25.049Z,9.07
2018-06-23T11:01:55.090Z,8.37
2018-06-23T11:04:24.089Z,9.97
2018-06-23T11:06:54.042Z,7.37
2018-06-23T11:09:22.610Z,6.77
2018-06-23T11:11:52.034Z,6.07
2018-06-23T11:14:22.951Z,7.10
2018-06-23T11:16:51.420Z,3.80
2018-06-23T11:19:19.917Z,7.63
2018-06-23T11:21:48.507Z,5.33
2018-06-23T11:24:19.534Z,6.50
2018-06-23T11:26:48.593Z,5.60
2018-06-23T11:29:17.154Z,6.00
2018-06-23T11:31:45.826Z,4.97
2018-06-23T11:34:14.902Z,8.17
2018-06-23T11:36:43.591Z,6.57
2018-06-23T11:39:20.409Z,6.97
2018-06-23T11:41:51.369Z,6.60
2018-06-23T11:44:22.199Z,6.87
2018-06-23T11:46:51.389Z,5.70
2018-06-23T11:49:20.591Z,5.00
2018-06-23T11:51:49.418Z,7.77
2018-06-23T11:54:17.932Z,8.33
2018-06-23T11:56:47.120Z,7.20
2018-06-23T11:59:15.796Z,9.10
2018-06-23T12:01:44.776Z,7.53
2018-06-23T12:04:18.693Z,10.23
2018-06-23T12:06:47.766Z,7.93
2018-06-23T12:09:16.620Z,9.87
2018-06-23T12:11:47.956Z,9.30
2018-06-23T12:14:17.935Z,9.57
2018-06-23T12:16:46.817Z,13.33
2018-06-23T12:19:17.491Z,13.47
2018-06-23T12:21:46.044Z,14.63
2018-06-23T12:24:15.421Z,10.40
2018-06-23T12:26:44.417Z,10.50
2018-06-23T12:29:18.005Z,9.43
2018-06-23T12:31:47.535Z,8.87
2018-06-23T12:34:18.579Z,9.10
2018-06-23T12:36:47.361Z,7.87
2018-06-23T12:39:16.065Z,11.87
2018-06-23T12:41:45.389Z,10.83
2018-06-23T12:44:15.360Z,9.40
2018-06-23T12:46:52.274Z,11.53
2018-06-23T12:49:26.991Z,10.77
2018-06-23T12:51:59.909Z,8.43
2018-06-23T12:54:32.484Z,9.00
2018-06-23T12:57:01.284Z,9.73
2018-06-23T12:59:29.969Z,9.97
2018-06-23T13:01:59.657Z,9.97
2018-06-23T13:04:28.846Z,12.53
2018-06-23T13:06:57.485Z,7.90
2018-06-23T13:09:26.278Z,8.90
2018-06-23T13:11:54.898Z,13.07
2018-06-23T13:14:24.256Z,12.53
2018-06-23T13:16:52.794Z,10.93
2018-06-23T13:19:24.747Z,10.20
2018-06-23T13:21:54.024Z,9.87
2018-06-23T13:24:23.302Z,10.10
2018-06-23T13:26:55.304Z,8.53
2018-06-23T13:29:24.129Z,9.40
2018-06-23T13:31:52.774Z,9.27
2018-06-23T13:34:21.436Z,11.03
2018-06-23T13:36:51.371Z,11.23
2018-06-23T13:39:19.978Z,10.00
2018-06-23T13:41:49.222Z,8.87
2018-06-23T13:44:18.006Z,11.63
2018-06-23T13:46:47.013Z,11.57
2018-06-23T13:49:16.229Z,10.83
2018-06-23T13:51:44.788Z,12.73
2018-06-23T13:54:13.395Z,13.33
2018-06-23T13:56:46.141Z,8.93
2018-06-23T13:59:16.211Z,9.67
2018-06-23T14:01:44.872Z,10.10
2018-06-23T14:04:14.037Z,12.17
2018-06-23T14:06:47.577Z,8.53
2018-06-23T14:09:19.915Z,12.50
2018-06-23T14:11:48.931Z,10.30
2018-06-23T14:14:21.009Z,13.43
2018-06-23T14:16:51.338Z,10.90
2018-06-23T14:19:21.621Z,10.83
2018-06-23T14:21:50.768Z,14.40
2018-06-23T14:24:19.641Z,18.37
2018-06-23T14:26:48.285Z,45.90
2018-06-23T14:29:17.012Z,13.47
2018-06-23T14:31:45.757Z,13.13
2018-06-23T14:34:14.781Z,18.53
2018-06-23T14:36:43.384Z,11.80
2018-06-23T14:39:12.580Z,13.77
2018-06-23T14:41:41.292Z,12.53
2018-06-23T14:44:10.062Z,14.57
2018-06-23T14:46:39.481Z,7.00
2018-06-23T14:49:08.268Z,8.87
2018-06-23T14:51:36.940Z,8.60
2018-06-23T14:54:05.670Z,9.13
2018-06-23T14:56:34.281Z,9.07
2018-06-23T14:59:03.049Z,11.97
2018-06-23T15:01:31.753Z,10.97
2018-06-23T15:04:00.605Z,12.53
2018-06-23T15:06:31.454Z,9.93
2018-06-23T15:09:11.466Z,10.17
2018-06-23T15:11:51.258Z,11.23
2018-06-23T15:14:20.172Z,9.47
2018-06-23T15:16:51.657Z,9.50
2018-06-23T15:19:20.248Z,9.67
2018-06-23T15:21:49.657Z,10.93
2018-06-23T15:24:19.697Z,9.27
2018-06-23T15:26:51.234Z,11.33
2018-06-23T15:29:21.427Z,7.70
2018-06-23T15:31:57.273Z,11.93
2018-06-23T15:34:29.272Z,9.63
2018-06-23T15:37:05.027Z,13.30
2018-06-23T15:39:50.726Z,11.53
2018-06-23T15:42:38.784Z,10.83
2018-06-23T15:45:14.009Z,9.97
2018-06-23T15:47:44.177Z,9.93
2018-06-23T15:50:13.552Z,11.17
2018-06-23T15:52:44.939Z,10.83
2018-06-23T15:55:17.113Z,11.30
2018-06-23T15:57:46.607Z,11.33
2018-06-23T16:00:18.337Z,11.97
2018-06-23T16:02:48.717Z,8.63
2018-06-23T16:05:20.673Z,11.47
2018-06-23T16:07:55.088Z,9.97
2018-06-23T16:10:26.732Z,12.30
2018-06-23T16:12:56.502Z,7.57
2018-06-23T16:15:25.738Z,9.00
2018-06-23T16:17:58.378Z,10.53
2018-06-23T16:20:29.960Z,8.83
2018-06-23T16:23:03.745Z,8.97
2018-06-23T16:25:36.604Z,8.97
2018-06-23T16:28:07.968Z,9.03
2018-06-23T16:30:39.650Z,10.23
2018-06-23T16:33:10.299Z,7.67
2018-06-23T16:35:41.430Z,8.00
2018-06-23T16:38:11.692Z,8.70
2018-06-23T16:40:42.186Z,10.67
2018-06-23T16:43:12.599Z,7.37
2018-06-23T16:45:48.024Z,8.67
2018-06-23T16:48:18.120Z,10.40
2018-06-23T16:50:53.128Z,9.50
2018-06-23T16:53:22.007Z,9.23
2018-06-23T16:55:50.920Z,8.03
2018-06-23T16:58:19.912Z,9.63
2018-06-23T17:00:48.622Z,7.97
2018-06-23T17:03:18.376Z,6.93
2018-06-23T17:05:47.350Z,8.23
2018-06-23T17:08:16.082Z,9.30
2018-06-23T17:10:44.872Z,8.70
2018-06-23T17:13:13.724Z,8.07
2018-06-23T17:15:43.705Z,8.87
2018-06-23T17:18:15.983Z,6.83
2018-06-23T17:20:46.988Z,9.07
2018-06-23T17:23:20.235Z,8.70
2018-06-23T17:25:49.080Z,5.57
2018-06-23T17:28:17.933Z,8.50
2018-06-23T17:30:47.006Z,7.93
2018-06-23T17:33:17.753Z,6.00
2018-06-23T17:35:47.719Z,9.43
2018-06-23T17:38:16.652Z,10.57
2018-06-23T17:40:46.682Z,6.43
2018-06-23T17:43:15.332Z,6.63
2018-06-23T17:45:44.814Z,8.87
2018-06-23T17:48:14.019Z,8.43
2018-06-23T17:50:42.650Z,9.13
2018-06-23T17:53:11.421Z,8.40
2018-06-23T17:55:40.117Z,7.47
2018-06-23T17:58:08.773Z,6.47
2018-06-23T18:00:37.820Z,8.07
2018-06-23T18:03:09.258Z,7.63
2018-06-23T18:05:39.276Z,7.50
2018-06-23T18:08:08.959Z,9.03
2018-06-23T18:10:38.036Z,6.40
2018-06-23T18:13:09.590Z,4.47
2018-06-23T18:15:38.721Z,7.93
2018-06-23T18:18:07.341Z,5.53
2018-06-23T18:20:37.162Z,7.27
2018-06-23T18:23:07.670Z,5.53
2018-06-23T18:25:36.438Z,10.00
2018-06-23T18:28:05.056Z,7.20
2018-06-23T18:30:36.198Z,6.43
2018-06-23T18:33:06.014Z,6.40
2018-06-23T18:35:35.545Z,6.57
2018-06-23T18:38:04.802Z,7.57
2018-06-23T18:40:34.480Z,6.63
2018-06-23T18:43:03.575Z,8.30
2018-06-23T18:45:33.001Z,6.97
2018-06-23T18:48:01.685Z,6.57
2018-06-23T18:50:33.325Z,4.90
2018-06-23T18:53:02.661Z,7.97
2018-06-23T18:55:31.702Z,6.93
2018-06-23T18:58:01.298Z,9.60
2018-06-23T19:00:30.159Z,7.97
2018-06-23T19:03:02.414Z,6.50
2018-06-23T19:05:34.843Z,6.70
2018-06-23T19:08:03.852Z,7.80
2018-06-23T19:10:33.027Z,6.90
2018-06-23T19:13:02.724Z,6.27
2018-06-23T19:15:32.360Z,5.17
2018-06-23T19:18:01.673Z,6.77
2018-06-23T19:20:30.527Z,5.60
2018-06-23T19:23:01.619Z,5.27
2018-06-23T19:25:30.456Z,5.77
2018-06-23T19:27:59.273Z,8.43
2018-06-23T19:30:28.949Z,8.37
2018-06-23T19:32:58.110Z,6.23
2018-06-23T19:35:28.133Z,7.47
2018-06-23T19:37:56.704Z,5.90
2018-06-23T19:40:25.603Z,7.87
2018-06-23T19:42:54.447Z,7.27
2018-06-23T19:45:29.169Z,7.33
2018-06-23T19:47:58.539Z,7.37
2018-06-23T19:50:28.036Z,5.20
2018-06-23T19:52:56.553Z,7.60
2018-06-23T19:55:25.786Z,6.60
2018-06-23T19:57:55.051Z,7.77
2018-06-23T20:00:25.144Z,5.87
2018-06-23T20:02:55.069Z,7.13
2018-06-23T20:05:24.250Z,7.67
2018-06-23T20:07:59.546Z,4.57
2018-06-23T20:10:28.715Z,7.27
2018-06-23T20:12:58.696Z,6.63
2018-06-23T20:15:27.671Z,7.63
2018-06-23T20:17:59.186Z,6.30
2018-06-23T20:20:28.377Z,5.77
2018-06-23T20:23:03.889Z,7.00
2018-06-23T20:25:33.645Z,6.83
2018-06-23T20:28:03.991Z,6.40
2018-06-23T20:30:36.962Z,6.83
2018-06-23T20:33:06.409Z,6.87
2018-06-23T20:35:36.769Z,6.20
2018-06-23T20:38:07.597Z,4.93
2018-06-23T20:40:37.294Z,8.50
2018-06-23T20:43:10.822Z,6.40
2018-06-23T20:45:44.349Z,6.93
2018-06-23T20:48:13.029Z,7.07
2018-06-23T20:50:42.618Z,8.43
2018-06-23T20:53:13.782Z,6.53
2018-06-23T20:55:42.693Z,4.70
2018-06-23T20:58:12.173Z,7.23
2018-06-23T21:00:41.229Z,7.23
2018-06-23T21:03:10.262Z,6.10
2018-06-23T21:05:39.707Z,4.97
2018-06-23T21:08:11.027Z,5.50
2018-06-23T21:10:43.323Z,5.37
2018-06-23T21:13:12.809Z,3.77
2018-06-23T21:15:41.801Z,8.63
2018-06-23T21:18:11.812Z,7.73
2018-06-23T21:20:41.394Z,4.47
2018-06-23T21:23:11.729Z,6.17
2018-06-23T21:25:41.303Z,5.57
2018-06-23T21:28:10.359Z,5.47
2018-06-23T21:30:39.021Z,4.73
2018-06-23T21:33:10.140Z,7.23
2018-06-23T21:35:45.359Z,7.50
2018-06-23T21:38:20.018Z,6.23
2018-06-23T21:41:01.001Z,7.80
2018-06-23T21:43:38.519Z,7.83
2018-06-23T21:46:11.602Z,6.00
2018-06-23T21:48:41.559Z,7.00
2018-06-23T21:51:15.165Z,5.97
2018-06-23T21:53:45.161Z,6.87
2018-06-23T21:56:18.486Z,6.43
2018-06-23T21:58:52.790Z,5.60
2018-06-23T22:01:22.263Z,4.97
2018-06-23T22:03:56.135Z,7.03
2018-06-23T22:06:25.442Z,6.63
2018-06-23T22:08:54.790Z,6.70
2018-06-23T22:11:23.837Z,3.53
2018-06-23T22:13:52.704Z,5.77
2018-06-23T22:16:27.592Z,5.77
2018-06-23T22:19:00.266Z,6.50
2018-06-23T22:21:49.027Z,5.37
2018-06-23T22:24:27.792Z,6.10
2018-06-23T22:27:01.476Z,7.13
2018-06-23T22:29:33.845Z,5.30
2018-06-23T22:34:48.289Z,7.47
2018-06-23T22:39:35.108Z,6.35
2018-06-23T22:42:04.270Z,6.47
2018-06-23T22:44:45.304Z,6.47
2018-06-23T22:47:16.243Z,6.33
2018-06-23T22:49:46.298Z,6.22
2018-06-23T22:52:17.642Z,6.27
2018-06-23T22:54:49.190Z,8.10
2018-06-23T22:57:18.099Z,4.60
2018-06-23T22:59:47.336Z,7.37
2018-06-23T23:02:17.316Z,7.80
2018-06-23T23:04:47.835Z,5.60
2018-06-23T23:07:19.692Z,5.73
2018-06-23T23:09:50.102Z,5.53
2018-06-23T23:12:20.373Z,6.20
2018-06-23T23:14:51.657Z,4.10
2018-06-23T23:17:20.644Z,5.13
2018-06-23T23:19:52.120Z,5.87
2018-06-23T23:22:22.140Z,5.40
2018-06-23T23:24:51.473Z,4.83
2018-06-23T23:27:23.042Z,7.50
2018-06-23T23:29:51.826Z,6.93
2018-06-23T23:32:21.288Z,8.53
2018-06-23T23:34:50.572Z,5.50
2018-06-23T23:37:19.321Z,5.40
2018-06-23T23:39:49.646Z,7.57
2018-06-23T23:42:20.109Z,8.17
2018-06-23T23:44:49.937Z,6.73
2018-06-23T23:47:19.017Z,5.83
2018-06-23T23:49:48.012Z,5.50
2018-06-23T23:52:17.035Z,6.03
2018-06-23T23:54:46.744Z,5.90
2018-06-23T23:57:18.570Z,6.20
2018-06-23T23:59:47.406Z,5.33
